sensor_id;sensor_type;location;lat;lon;timestamp;P1;durP1;ratioP1;P2;durP2;ratioP2
18520;SDS011;9390;51.244;6.982;2023-02-15T00:00:46;41.58;;;19.13;;
18520;SDS011;9390;51.244;6.982;2023-02-15T00:03:19;48.28;;;20.05;;
18520;SDS011;9390;51.244;6.982;2023-02-15T00:05:50;44.13;;;19.42;;
18520;SDS011;9390;51.244;6.982;2023-02-15T00:08:22;44.58;;;20.05;;
18520;SDS011;9390;51.244;6.982;2023-02-15T00:10:56;40.83;;;19.05;;
18520;SDS011;9390;51.244;6.982;2023-02-15T00:13:34;41.28;;;19.75;;
18520;SDS011;9390;51.244;6.982;2023-02-15T00:16:09;46.30;;;20.95;;
18520;SDS011;9390;51.244;6.982;2023-02-15T00:18:43;39.38;;;17.83;;
18520;SDS011;9390;51.244;6.982;2023-02-15T00:21:15;48.10;;;20.90;;
18520;SDS011;9390;51.244;6.982;2023-02-15T00:23:46;47.08;;;19.67;;
18520;SDS011;9390;51.244;6.982;2023-02-15T00:26:18;39.88;;;18.40;;
18520;SDS011;9390;51.244;6.982;2023-02-15T00:28:49;40.88;;;18.55;;
18520;SDS011;9390;51.244;6.982;2023-02-15T00:31:21;48.28;;;19.75;;
18520;SDS011;9390;51.244;6.982;2023-02-15T00:33:54;45.97;;;20.33;;
18520;SDS011;9390;51.244;6.982;2023-02-15T00:36:26;48.20;;;22.05;;
18520;SDS011;9390;51.244;6.982;2023-02-15T00:38:57;48.78;;;21.98;;
18520;SDS011;9390;51.244;6.982;2023-02-15T00:41:29;45.03;;;20.17;;
18520;SDS011;9390;51.244;6.982;2023-02-15T00:44:00;44.97;;;19.95;;
18520;SDS011;9390;51.244;6.982;2023-02-15T00:46:32;47.72;;;20.80;;
18520;SDS011;9390;51.244;6.982;2023-02-15T00:49:05;51.40;;;22.20;;
18520;SDS011;9390;51.244;6.982;2023-02-15T00:51:37;47.03;;;21.48;;
18520;SDS011;9390;51.244;6.982;2023-02-15T00:54:09;47.92;;;21.63;;
18520;SDS011;9390;51.244;6.982;2023-02-15T00:56:40;49.45;;;20.33;;
18520;SDS011;9390;51.244;6.982;2023-02-15T00:59:12;53.85;;;22.10;;
18520;SDS011;9390;51.244;6.982;2023-02-15T01:01:44;47.63;;;21.65;;
18520;SDS011;9390;51.244;6.982;2023-02-15T01:04:17;50.33;;;22.80;;
18520;SDS011;9390;51.244;6.982;2023-02-15T01:06:48;52.70;;;23.15;;
18520;SDS011;9390;51.244;6.982;2023-02-15T01:09:20;49.20;;;21.58;;
18520;SDS011;9390;51.244;6.982;2023-02-15T01:11:52;47.97;;;20.90;;
18520;SDS011;9390;51.244;6.982;2023-02-15T01:14:24;53.83;;;22.90;;
18520;SDS011;9390;51.244;6.982;2023-02-15T01:16:55;47.28;;;21.48;;
18520;SDS011;9390;51.244;6.982;2023-02-15T01:19:28;47.65;;;21.02;;
18520;SDS011;9390;51.244;6.982;2023-02-15T01:22:00;55.20;;;22.98;;
18520;SDS011;9390;51.244;6.982;2023-02-15T01:24:31;55.22;;;22.33;;
18520;SDS011;9390;51.244;6.982;2023-02-15T01:27:03;55.72;;;22.85;;
18520;SDS011;9390;51.244;6.982;2023-02-15T01:29:34;51.42;;;22.50;;
18520;SDS011;9390;51.244;6.982;2023-02-15T01:32:06;59.20;;;23.35;;
18520;SDS011;9390;51.244;6.982;2023-02-15T01:34:39;57.42;;;23.17;;
18520;SDS011;9390;51.244;6.982;2023-02-15T01:37:10;53.10;;;24.17;;
18520;SDS011;9390;51.244;6.982;2023-02-15T01:39:42;50.10;;;22.90;;
18520;SDS011;9390;51.244;6.982;2023-02-15T01:42:13;53.13;;;23.77;;
18520;SDS011;9390;51.244;6.982;2023-02-15T01:44:49;52.85;;;22.45;;
18520;SDS011;9390;51.244;6.982;2023-02-15T01:47:23;54.45;;;24.05;;
18520;SDS011;9390;51.244;6.982;2023-02-15T01:50:00;52.95;;;23.25;;
18520;SDS011;9390;51.244;6.982;2023-02-15T01:52:35;58.33;;;24.27;;
18520;SDS011;9390;51.244;6.982;2023-02-15T01:55:08;60.65;;;24.73;;
18520;SDS011;9390;51.244;6.982;2023-02-15T01:57:40;56.13;;;24.25;;
18520;SDS011;9390;51.244;6.982;2023-02-15T02:00:12;56.33;;;25.38;;
18520;SDS011;9390;51.244;6.982;2023-02-15T02:02:45;56.20;;;25.00;;
18520;SDS011;9390;51.244;6.982;2023-02-15T02:05:19;59.63;;;23.98;;
18520;SDS011;9390;51.244;6.982;2023-02-15T02:07:51;62.30;;;25.42;;
18520;SDS011;9390;51.244;6.982;2023-02-15T02:10:24;58.35;;;26.35;;
18520;SDS011;9390;51.244;6.982;2023-02-15T02:12:57;65.78;;;26.02;;
18520;SDS011;9390;51.244;6.982;2023-02-15T02:15:32;62.60;;;26.10;;
18520;SDS011;9390;51.244;6.982;2023-02-15T02:18:15;51.63;;;23.02;;
18520;SDS011;9390;51.244;6.982;2023-02-15T02:21:02;54.90;;;23.02;;
18520;SDS011;9390;51.244;6.982;2023-02-15T02:23:55;66.88;;;25.27;;
18520;SDS011;9390;51.244;6.982;2023-02-15T02:29:52;63.33;;;25.90;;
18520;SDS011;9390;51.244;6.982;2023-02-15T02:35:48;61.10;;;24.83;;
18520;SDS011;9390;51.244;6.982;2023-02-15T02:38:24;57.25;;;23.65;;
18520;SDS011;9390;51.244;6.982;2023-02-15T02:41:01;58.58;;;26.00;;
18520;SDS011;9390;51.244;6.982;2023-02-15T02:43:42;63.53;;;25.55;;
18520;SDS011;9390;51.244;6.982;2023-02-15T02:46:20;57.60;;;25.52;;
18520;SDS011;9390;51.244;6.982;2023-02-15T02:48:54;71.95;;;28.27;;
18520;SDS011;9390;51.244;6.982;2023-02-15T02:53:58;68.50;;;25.65;;
18520;SDS011;9390;51.244;6.982;2023-02-15T02:56:33;65.20;;;26.83;;
18520;SDS011;9390;51.244;6.982;2023-02-15T02:59:07;63.20;;;25.88;;
18520;SDS011;9390;51.244;6.982;2023-02-15T03:01:45;64.20;;;26.98;;
18520;SDS011;9390;51.244;6.982;2023-02-15T03:04:20;72.63;;;27.58;;
18520;SDS011;9390;51.244;6.982;2023-02-15T03:06:54;65.53;;;26.65;;
18520;SDS011;9390;51.244;6.982;2023-02-15T03:09:29;68.40;;;26.42;;
18520;SDS011;9390;51.244;6.982;2023-02-15T03:12:04;63.50;;;27.00;;
18520;SDS011;9390;51.244;6.982;2023-02-15T03:14:36;67.07;;;26.55;;
18520;SDS011;9390;51.244;6.982;2023-02-15T03:17:09;66.88;;;26.90;;
18520;SDS011;9390;51.244;6.982;2023-02-15T03:19:43;63.47;;;25.15;;
18520;SDS011;9390;51.244;6.982;2023-02-15T03:22:17;67.03;;;27.25;;
18520;SDS011;9390;51.244;6.982;2023-02-15T03:24:52;61.13;;;25.83;;
18520;SDS011;9390;51.244;6.982;2023-02-15T03:27:27;71.18;;;25.73;;
18520;SDS011;9390;51.244;6.982;2023-02-15T03:30:03;70.90;;;27.58;;
18520;SDS011;9390;51.244;6.982;2023-02-15T03:35:08;65.05;;;25.98;;
18520;SDS011;9390;51.244;6.982;2023-02-15T03:37:41;67.18;;;28.33;;
18520;SDS011;9390;51.244;6.982;2023-02-15T03:40:16;66.30;;;26.90;;
18520;SDS011;9390;51.244;6.982;2023-02-15T03:43:09;68.63;;;28.37;;
18520;SDS011;9390;51.244;6.982;2023-02-15T03:45:44;63.58;;;26.65;;
18520;SDS011;9390;51.244;6.982;2023-02-15T03:48:27;74.85;;;29.08;;
18520;SDS011;9390;51.244;6.982;2023-02-15T03:51:02;71.05;;;28.23;;
18520;SDS011;9390;51.244;6.982;2023-02-15T03:53:52;66.50;;;27.25;;
18520;SDS011;9390;51.244;6.982;2023-02-15T03:56:25;70.15;;;27.48;;
18520;SDS011;9390;51.244;6.982;2023-02-15T03:58:57;67.72;;;26.95;;
18520;SDS011;9390;51.244;6.982;2023-02-15T04:01:47;73.25;;;27.83;;
18520;SDS011;9390;51.244;6.982;2023-02-15T04:04:32;70.03;;;28.58;;
18520;SDS011;9390;51.244;6.982;2023-02-15T04:07:06;62.35;;;25.83;;
18520;SDS011;9390;51.244;6.982;2023-02-15T04:09:39;77.03;;;28.60;;
18520;SDS011;9390;51.244;6.982;2023-02-15T04:12:28;70.18;;;26.77;;
18520;SDS011;9390;51.244;6.982;2023-02-15T04:15:00;69.03;;;28.52;;
18520;SDS011;9390;51.244;6.982;2023-02-15T04:17:49;67.35;;;27.00;;
18520;SDS011;9390;51.244;6.982;2023-02-15T04:20:20;62.10;;;25.50;;
18520;SDS011;9390;51.244;6.982;2023-02-15T04:23:10;73.30;;;28.00;;
18520;SDS011;9390;51.244;6.982;2023-02-15T04:26:02;68.35;;;25.73;;
18520;SDS011;9390;51.244;6.982;2023-02-15T04:28:34;66.72;;;27.35;;
18520;SDS011;9390;51.244;6.982;2023-02-15T04:31:05;67.10;;;27.17;;
18520;SDS011;9390;51.244;6.982;2023-02-15T04:33:37;70.35;;;27.75;;
18520;SDS011;9390;51.244;6.982;2023-02-15T04:36:08;62.35;;;26.10;;
18520;SDS011;9390;51.244;6.982;2023-02-15T04:38:41;65.80;;;26.10;;
18520;SDS011;9390;51.244;6.982;2023-02-15T04:41:12;65.65;;;26.80;;
18520;SDS011;9390;51.244;6.982;2023-02-15T04:43:43;69.30;;;28.63;;
18520;SDS011;9390;51.244;6.982;2023-02-15T04:46:15;65.10;;;26.35;;
18520;SDS011;9390;51.244;6.982;2023-02-15T04:48:46;69.63;;;28.25;;
18520;SDS011;9390;51.244;6.982;2023-02-15T04:51:17;61.25;;;25.83;;
18520;SDS011;9390;51.244;6.982;2023-02-15T04:53:50;60.97;;;25.70;;
18520;SDS011;9390;51.244;6.982;2023-02-15T04:56:22;64.45;;;27.05;;
18520;SDS011;9390;51.244;6.982;2023-02-15T04:58:54;58.55;;;25.40;;
18520;SDS011;9390;51.244;6.982;2023-02-15T05:01:25;71.95;;;27.52;;
18520;SDS011;9390;51.244;6.982;2023-02-15T05:03:56;65.38;;;25.77;;
18520;SDS011;9390;51.244;6.982;2023-02-15T05:06:28;59.83;;;26.42;;
18520;SDS011;9390;51.244;6.982;2023-02-15T05:09:01;70.05;;;28.30;;
18520;SDS011;9390;51.244;6.982;2023-02-15T05:11:32;67.15;;;27.75;;
18520;SDS011;9390;51.244;6.982;2023-02-15T05:14:03;70.63;;;27.38;;
18520;SDS011;9390;51.244;6.982;2023-02-15T05:16:35;66.95;;;28.10;;
18520;SDS011;9390;51.244;6.982;2023-02-15T05:19:06;64.05;;;27.73;;
18520;SDS011;9390;51.244;6.982;2023-02-15T05:21:38;63.28;;;27.17;;
18520;SDS011;9390;51.244;6.982;2023-02-15T05:24:11;62.40;;;25.42;;
18520;SDS011;9390;51.244;6.982;2023-02-15T05:27:00;62.47;;;25.55;;
18520;SDS011;9390;51.244;6.982;2023-02-15T05:29:49;65.63;;;26.52;;
18520;SDS011;9390;51.244;6.982;2023-02-15T05:32:20;68.93;;;26.85;;
18520;SDS011;9390;51.244;6.982;2023-02-15T05:34:51;62.90;;;25.08;;
18520;SDS011;9390;51.244;6.982;2023-02-15T05:37:23;71.22;;;26.83;;
18520;SDS011;9390;51.244;6.982;2023-02-15T05:39:55;67.20;;;26.77;;
18520;SDS011;9390;51.244;6.982;2023-02-15T05:42:27;70.70;;;28.42;;
18520;SDS011;9390;51.244;6.982;2023-02-15T05:44:58;73.38;;;28.20;;
18520;SDS011;9390;51.244;6.982;2023-02-15T05:47:29;73.05;;;27.75;;
18520;SDS011;9390;51.244;6.982;2023-02-15T05:50:01;68.70;;;27.48;;
18520;SDS011;9390;51.244;6.982;2023-02-15T05:52:32;66.20;;;28.48;;
18520;SDS011;9390;51.244;6.982;2023-02-15T05:55:05;71.10;;;27.13;;
18520;SDS011;9390;51.244;6.982;2023-02-15T05:57:38;61.58;;;26.73;;
18520;SDS011;9390;51.244;6.982;2023-02-15T06:00:10;64.32;;;25.05;;
18520;SDS011;9390;51.244;6.982;2023-02-15T06:02:43;68.32;;;27.58;;
18520;SDS011;9390;51.244;6.982;2023-02-15T06:05:15;67.50;;;26.67;;
18520;SDS011;9390;51.244;6.982;2023-02-15T06:07:46;62.67;;;26.25;;
18520;SDS011;9390;51.244;6.982;2023-02-15T06:10:19;63.55;;;27.05;;
18520;SDS011;9390;51.244;6.982;2023-02-15T06:12:50;67.13;;;26.92;;
18520;SDS011;9390;51.244;6.982;2023-02-15T06:15:22;69.32;;;26.77;;
18520;SDS011;9390;51.244;6.982;2023-02-15T06:17:53;63.92;;;25.77;;
18520;SDS011;9390;51.244;6.982;2023-02-15T06:20:25;64.07;;;25.65;;
18520;SDS011;9390;51.244;6.982;2023-02-15T06:22:56;59.75;;;25.40;;
18520;SDS011;9390;51.244;6.982;2023-02-15T06:25:29;68.47;;;25.88;;
18520;SDS011;9390;51.244;6.982;2023-02-15T06:28:00;63.72;;;24.25;;
18520;SDS011;9390;51.244;6.982;2023-02-15T06:30:32;60.72;;;26.55;;
18520;SDS011;9390;51.244;6.982;2023-02-15T06:33:03;61.50;;;25.50;;
18520;SDS011;9390;51.244;6.982;2023-02-15T06:35:35;66.78;;;27.05;;
18520;SDS011;9390;51.244;6.982;2023-02-15T06:38:06;66.50;;;25.73;;
18520;SDS011;9390;51.244;6.982;2023-02-15T06:40:39;68.70;;;26.08;;
18520;SDS011;9390;51.244;6.982;2023-02-15T06:43:10;65.38;;;26.05;;
18520;SDS011;9390;51.244;6.982;2023-02-15T06:45:41;61.33;;;25.10;;
18520;SDS011;9390;51.244;6.982;2023-02-15T06:48:13;59.40;;;23.70;;
18520;SDS011;9390;51.244;6.982;2023-02-15T06:50:44;59.35;;;23.17;;
18520;SDS011;9390;51.244;6.982;2023-02-15T06:53:16;64.82;;;26.30;;
18520;SDS011;9390;51.244;6.982;2023-02-15T06:55:48;57.28;;;24.30;;
18520;SDS011;9390;51.244;6.982;2023-02-15T06:58:20;58.58;;;24.20;;
18520;SDS011;9390;51.244;6.982;2023-02-15T07:00:51;56.13;;;23.05;;
18520;SDS011;9390;51.244;6.982;2023-02-15T07:03:22;56.65;;;23.13;;
18520;SDS011;9390;51.244;6.982;2023-02-15T07:05:54;59.08;;;24.10;;
18520;SDS011;9390;51.244;6.982;2023-02-15T07:08:26;65.40;;;25.13;;
18520;SDS011;9390;51.244;6.982;2023-02-15T07:11:00;54.85;;;23.65;;
18520;SDS011;9390;51.244;6.982;2023-02-15T07:13:45;58.50;;;24.73;;
18520;SDS011;9390;51.244;6.982;2023-02-15T07:16:16;54.80;;;23.77;;
18520;SDS011;9390;51.244;6.982;2023-02-15T07:18:48;57.78;;;24.65;;
18520;SDS011;9390;51.244;6.982;2023-02-15T07:21:19;55.60;;;23.30;;
18520;SDS011;9390;51.244;6.982;2023-02-15T07:23:50;56.85;;;24.40;;
18520;SDS011;9390;51.244;6.982;2023-02-15T07:26:23;55.28;;;24.17;;
18520;SDS011;9390;51.244;6.982;2023-02-15T07:28:55;52.10;;;24.83;;
18520;SDS011;9390;51.244;6.982;2023-02-15T07:31:26;56.38;;;22.63;;
18520;SDS011;9390;51.244;6.982;2023-02-15T07:33:58;52.30;;;21.40;;
18520;SDS011;9390;51.244;6.982;2023-02-15T07:36:31;55.38;;;23.15;;
18520;SDS011;9390;51.244;6.982;2023-02-15T07:39:03;50.97;;;22.75;;
18520;SDS011;9390;51.244;6.982;2023-02-15T07:41:35;51.15;;;22.83;;
18520;SDS011;9390;51.244;6.982;2023-02-15T07:44:12;51.42;;;21.42;;
18520;SDS011;9390;51.244;6.982;2023-02-15T07:46:44;49.10;;;21.70;;
18520;SDS011;9390;51.244;6.982;2023-02-15T07:49:16;49.83;;;21.70;;
18520;SDS011;9390;51.244;6.982;2023-02-15T07:51:47;53.63;;;21.02;;
18520;SDS011;9390;51.244;6.982;2023-02-15T07:54:18;44.85;;;19.95;;
18520;SDS011;9390;51.244;6.982;2023-02-15T07:56:51;54.53;;;22.17;;
18520;SDS011;9390;51.244;6.982;2023-02-15T07:59:22;43.60;;;19.75;;
18520;SDS011;9390;51.244;6.982;2023-02-15T08:01:54;47.92;;;19.02;;
18520;SDS011;9390;51.244;6.982;2023-02-15T08:04:26;43.58;;;18.92;;
18520;SDS011;9390;51.244;6.982;2023-02-15T08:06:57;41.72;;;18.98;;
18520;SDS011;9390;51.244;6.982;2023-02-15T08:09:28;41.33;;;18.70;;
18520;SDS011;9390;51.244;6.982;2023-02-15T08:12:01;41.42;;;18.17;;
18520;SDS011;9390;51.244;6.982;2023-02-15T08:14:34;40.60;;;17.98;;
18520;SDS011;9390;51.244;6.982;2023-02-15T08:17:05;38.72;;;18.60;;
18520;SDS011;9390;51.244;6.982;2023-02-15T08:19:37;36.95;;;16.92;;
18520;SDS011;9390;51.244;6.982;2023-02-15T08:22:11;38.58;;;17.85;;
18520;SDS011;9390;51.244;6.982;2023-02-15T08:24:43;42.55;;;18.95;;
18520;SDS011;9390;51.244;6.982;2023-02-15T08:27:16;35.88;;;16.95;;
18520;SDS011;9390;51.244;6.982;2023-02-15T08:29:47;40.88;;;17.75;;
18520;SDS011;9390;51.244;6.982;2023-02-15T08:32:19;33.33;;;16.35;;
18520;SDS011;9390;51.244;6.982;2023-02-15T08:34:50;37.47;;;17.05;;
18520;SDS011;9390;51.244;6.982;2023-02-15T08:37:21;32.78;;;15.60;;
18520;SDS011;9390;51.244;6.982;2023-02-15T08:39:53;34.60;;;15.00;;
18520;SDS011;9390;51.244;6.982;2023-02-15T08:42:25;37.40;;;16.00;;
18520;SDS011;9390;51.244;6.982;2023-02-15T08:44:57;34.58;;;15.77;;
18520;SDS011;9390;51.244;6.982;2023-02-15T08:47:28;30.52;;;14.68;;
18520;SDS011;9390;51.244;6.982;2023-02-15T08:49:59;34.33;;;14.90;;
18520;SDS011;9390;51.244;6.982;2023-02-15T08:52:31;33.75;;;15.02;;
18520;SDS011;9390;51.244;6.982;2023-02-15T08:55:02;30.33;;;14.38;;
18520;SDS011;9390;51.244;6.982;2023-02-15T08:57:35;25.85;;;13.00;;
18520;SDS011;9390;51.244;6.982;2023-02-15T09:00:08;26.38;;;13.43;;
18520;SDS011;9390;51.244;6.982;2023-02-15T09:02:41;26.58;;;12.32;;
18520;SDS011;9390;51.244;6.982;2023-02-15T09:05:13;28.50;;;12.68;;
18520;SDS011;9390;51.244;6.982;2023-02-15T09:07:44;27.60;;;12.52;;
18520;SDS011;9390;51.244;6.982;2023-02-15T09:10:15;24.13;;;12.77;;
18520;SDS011;9390;51.244;6.982;2023-02-15T09:12:48;26.25;;;12.48;;
18520;SDS011;9390;51.244;6.982;2023-02-15T09:15:21;24.75;;;12.07;;
18520;SDS011;9390;51.244;6.982;2023-02-15T09:17:52;28.70;;;12.73;;
18520;SDS011;9390;51.244;6.982;2023-02-15T09:20:23;25.25;;;13.32;;
18520;SDS011;9390;51.244;6.982;2023-02-15T09:22:55;25.13;;;11.77;;
18520;SDS011;9390;51.244;6.982;2023-02-15T09:25:26;24.40;;;12.52;;
18520;SDS011;9390;51.244;6.982;2023-02-15T09:27:59;26.75;;;12.50;;
18520;SDS011;9390;51.244;6.982;2023-02-15T09:30:30;29.73;;;13.88;;
18520;SDS011;9390;51.244;6.982;2023-02-15T09:33:02;26.52;;;12.15;;
18520;SDS011;9390;51.244;6.982;2023-02-15T09:35:33;26.23;;;12.52;;
18520;SDS011;9390;51.244;6.982;2023-02-15T09:38:05;26.48;;;12.50;;
18520;SDS011;9390;51.244;6.982;2023-02-15T09:40:38;26.40;;;12.93;;
18520;SDS011;9390;51.244;6.982;2023-02-15T09:43:19;26.40;;;12.07;;
18520;SDS011;9390;51.244;6.982;2023-02-15T09:46:00;29.50;;;12.55;;
18520;SDS011;9390;51.244;6.982;2023-02-15T09:48:40;23.70;;;11.43;;
18520;SDS011;9390;51.244;6.982;2023-02-15T09:51:24;24.42;;;11.70;;
18520;SDS011;9390;51.244;6.982;2023-02-15T09:56:58;23.38;;;11.68;;
18520;SDS011;9390;51.244;6.982;2023-02-15T09:59:34;24.77;;;12.18;;
18520;SDS011;9390;51.244;6.982;2023-02-15T10:02:14;24.35;;;12.05;;
18520;SDS011;9390;51.244;6.982;2023-02-15T10:04:58;25.40;;;12.27;;
18520;SDS011;9390;51.244;6.982;2023-02-15T10:07:40;25.98;;;12.13;;
18520;SDS011;9390;51.244;6.982;2023-02-15T10:10:51;26.37;;;11.93;;
18520;SDS011;9390;51.244;6.982;2023-02-15T10:13:49;25.52;;;12.40;;
18520;SDS011;9390;51.244;6.982;2023-02-15T10:16:34;26.70;;;12.40;;
18520;SDS011;9390;51.244;6.982;2023-02-15T10:19:14;24.80;;;12.50;;
18520;SDS011;9390;51.244;6.982;2023-02-15T10:24:26;24.63;;;11.65;;
18520;SDS011;9390;51.244;6.982;2023-02-15T10:27:07;25.80;;;11.95;;
18520;SDS011;9390;51.244;6.982;2023-02-15T10:29:44;25.27;;;11.40;;
18520;SDS011;9390;51.244;6.982;2023-02-15T10:32:24;23.42;;;10.93;;
18520;SDS011;9390;51.244;6.982;2023-02-15T10:34:58;21.65;;;11.48;;
18520;SDS011;9390;51.244;6.982;2023-02-15T10:37:35;24.73;;;11.45;;
18520;SDS011;9390;51.244;6.982;2023-02-15T10:40:25;24.17;;;12.10;;
18520;SDS011;9390;51.244;6.982;2023-02-15T10:45:58;25.90;;;11.95;;
18520;SDS011;9390;51.244;6.982;2023-02-15T10:48:41;27.92;;;12.25;;
18520;SDS011;9390;51.244;6.982;2023-02-15T10:51:26;22.58;;;11.18;;
18520;SDS011;9390;51.244;6.982;2023-02-15T10:54:09;22.63;;;11.48;;
18520;SDS011;9390;51.244;6.982;2023-02-15T10:56:49;24.42;;;13.10;;
18520;SDS011;9390;51.244;6.982;2023-02-15T10:59:30;24.02;;;11.60;;
18520;SDS011;9390;51.244;6.982;2023-02-15T11:02:24;24.48;;;12.25;;
18520;SDS011;9390;51.244;6.982;2023-02-15T11:05:13;22.33;;;11.95;;
18520;SDS011;9390;51.244;6.982;2023-02-15T11:07:51;27.90;;;11.15;;
18520;SDS011;9390;51.244;6.982;2023-02-15T11:12:58;23.27;;;11.07;;
18520;SDS011;9390;51.244;6.982;2023-02-15T11:15:36;25.38;;;11.52;;
18520;SDS011;9390;51.244;6.982;2023-02-15T11:18:11;24.10;;;11.88;;
18520;SDS011;9390;51.244;6.982;2023-02-15T11:20:49;26.17;;;12.00;;
18520;SDS011;9390;51.244;6.982;2023-02-15T11:23:24;23.35;;;11.57;;
18520;SDS011;9390;51.244;6.982;2023-02-15T11:25:57;25.83;;;11.85;;
18520;SDS011;9390;51.244;6.982;2023-02-15T11:31:10;22.98;;;10.55;;
18520;SDS011;9390;51.244;6.982;2023-02-15T11:33:44;26.05;;;11.15;;
18520;SDS011;9390;51.244;6.982;2023-02-15T11:36:20;22.23;;;11.27;;
18520;SDS011;9390;51.244;6.982;2023-02-15T11:38:54;23.88;;;10.60;;
18520;SDS011;9390;51.244;6.982;2023-02-15T11:41:31;23.40;;;10.95;;
18520;SDS011;9390;51.244;6.982;2023-02-15T11:44:04;24.23;;;11.38;;
18520;SDS011;9390;51.244;6.982;2023-02-15T11:46:37;22.73;;;11.50;;
18520;SDS011;9390;51.244;6.982;2023-02-15T11:49:15;21.85;;;11.30;;
18520;SDS011;9390;51.244;6.982;2023-02-15T11:51:54;24.23;;;11.23;;
18520;SDS011;9390;51.244;6.982;2023-02-15T11:54:27;23.55;;;11.98;;
18520;SDS011;9390;51.244;6.982;2023-02-15T11:57:03;25.92;;;11.80;;
18520;SDS011;9390;51.244;6.982;2023-02-15T11:59:43;24.23;;;11.55;;
18520;SDS011;9390;51.244;6.982;2023-02-15T12:02:18;21.60;;;11.18;;
18520;SDS011;9390;51.244;6.982;2023-02-15T12:04:52;23.98;;;11.18;;
18520;SDS011;9390;51.244;6.982;2023-02-15T12:07:28;20.88;;;10.88;;
18520;SDS011;9390;51.244;6.982;2023-02-15T12:10:03;27.67;;;11.68;;
18520;SDS011;9390;51.244;6.982;2023-02-15T12:12:37;25.17;;;11.20;;
18520;SDS011;9390;51.244;6.982;2023-02-15T12:15:09;22.88;;;11.40;;
18520;SDS011;9390;51.244;6.982;2023-02-15T12:17:51;23.15;;;11.07;;
18520;SDS011;9390;51.244;6.982;2023-02-15T12:20:25;24.60;;;11.90;;
18520;SDS011;9390;51.244;6.982;2023-02-15T12:23:01;24.10;;;11.77;;
18520;SDS011;9390;51.244;6.982;2023-02-15T12:25:35;23.23;;;10.90;;
18520;SDS011;9390;51.244;6.982;2023-02-15T12:28:16;25.13;;;11.82;;
18520;SDS011;9390;51.244;6.982;2023-02-15T12:30:54;20.80;;;11.18;;
18520;SDS011;9390;51.244;6.982;2023-02-15T12:33:28;26.63;;;11.30;;
18520;SDS011;9390;51.244;6.982;2023-02-15T12:36:02;24.40;;;12.25;;
18520;SDS011;9390;51.244;6.982;2023-02-15T12:38:36;25.30;;;11.85;;
18520;SDS011;9390;51.244;6.982;2023-02-15T12:41:21;23.17;;;10.90;;
18520;SDS011;9390;51.244;6.982;2023-02-15T12:44:03;24.77;;;11.40;;
18520;SDS011;9390;51.244;6.982;2023-02-15T12:46:36;22.42;;;10.90;;
18520;SDS011;9390;51.244;6.982;2023-02-15T12:49:14;22.00;;;11.20;;
18520;SDS011;9390;51.244;6.982;2023-02-15T12:51:49;25.17;;;10.80;;
18520;SDS011;9390;51.244;6.982;2023-02-15T12:54:36;22.77;;;11.82;;
18520;SDS011;9390;51.244;6.982;2023-02-15T13:00:00;23.35;;;11.50;;
18520;SDS011;9390;51.244;6.982;2023-02-15T13:02:35;27.55;;;11.52;;
18520;SDS011;9390;51.244;6.982;2023-02-15T13:05:13;22.27;;;10.73;;
18520;SDS011;9390;51.244;6.982;2023-02-15T13:07:50;24.80;;;11.43;;
18520;SDS011;9390;51.244;6.982;2023-02-15T13:10:25;20.88;;;10.40;;
18520;SDS011;9390;51.244;6.982;2023-02-15T13:12:58;21.33;;;10.90;;
18520;SDS011;9390;51.244;6.982;2023-02-15T13:15:34;22.08;;;11.07;;
18520;SDS011;9390;51.244;6.982;2023-02-15T13:18:10;23.33;;;10.98;;
18520;SDS011;9390;51.244;6.982;2023-02-15T13:20:44;22.20;;;10.27;;
18520;SDS011;9390;51.244;6.982;2023-02-15T13:23:21;26.60;;;11.65;;
18520;SDS011;9390;51.244;6.982;2023-02-15T13:25:59;21.25;;;11.13;;
18520;SDS011;9390;51.244;6.982;2023-02-15T13:28:37;21.52;;;9.60;;
18520;SDS011;9390;51.244;6.982;2023-02-15T13:31:11;23.23;;;11.20;;
18520;SDS011;9390;51.244;6.982;2023-02-15T13:33:45;23.45;;;11.10;;
18520;SDS011;9390;51.244;6.982;2023-02-15T13:36:20;21.40;;;10.73;;
18520;SDS011;9390;51.244;6.982;2023-02-15T13:38:57;24.02;;;10.98;;
18520;SDS011;9390;51.244;6.982;2023-02-15T13:41:36;28.45;;;11.75;;
18520;SDS011;9390;51.244;6.982;2023-02-15T13:46:52;20.73;;;10.10;;
18520;SDS011;9390;51.244;6.982;2023-02-15T13:49:33;22.83;;;10.95;;
18520;SDS011;9390;51.244;6.982;2023-02-15T13:52:13;21.13;;;11.27;;
18520;SDS011;9390;51.244;6.982;2023-02-15T13:55:02;25.20;;;11.30;;
18520;SDS011;9390;51.244;6.982;2023-02-15T13:57:47;24.42;;;10.23;;
18520;SDS011;9390;51.244;6.982;2023-02-15T14:00:29;23.15;;;11.55;;
18520;SDS011;9390;51.244;6.982;2023-02-15T14:03:11;23.88;;;11.48;;
18520;SDS011;9390;51.244;6.982;2023-02-15T14:06:02;23.13;;;10.43;;
18520;SDS011;9390;51.244;6.982;2023-02-15T14:08:43;22.52;;;10.07;;
18520;SDS011;9390;51.244;6.982;2023-02-15T14:11:21;22.33;;;10.73;;
18520;SDS011;9390;51.244;6.982;2023-02-15T14:14:03;21.33;;;10.35;;
18520;SDS011;9390;51.244;6.982;2023-02-15T14:16:45;22.83;;;10.30;;
18520;SDS011;9390;51.244;6.982;2023-02-15T14:19:25;24.95;;;10.77;;
18520;SDS011;9390;51.244;6.982;2023-02-15T14:22:00;21.85;;;9.88;;
18520;SDS011;9390;51.244;6.982;2023-02-15T14:24:38;21.98;;;9.80;;
18520;SDS011;9390;51.244;6.982;2023-02-15T14:27:16;23.63;;;10.85;;
18520;SDS011;9390;51.244;6.982;2023-02-15T14:29:56;21.60;;;10.15;;
18520;SDS011;9390;51.244;6.982;2023-02-15T14:32:30;23.05;;;10.15;;
18520;SDS011;9390;51.244;6.982;2023-02-15T14:35:12;19.67;;;10.27;;
18520;SDS011;9390;51.244;6.982;2023-02-15T14:37:46;22.90;;;10.45;;
18520;SDS011;9390;51.244;6.982;2023-02-15T14:40:26;22.85;;;10.98;;
18520;SDS011;9390;51.244;6.982;2023-02-15T14:43:24;24.38;;;11.18;;
18520;SDS011;9390;51.244;6.982;2023-02-15T14:46:03;21.90;;;10.43;;
18520;SDS011;9390;51.244;6.982;2023-02-15T14:48:41;23.40;;;10.82;;
18520;SDS011;9390;51.244;6.982;2023-02-15T14:57:27;20.90;;;10.75;;
18520;SDS011;9390;51.244;6.982;2023-02-15T15:00:02;23.45;;;10.20;;
18520;SDS011;9390;51.244;6.982;2023-02-15T15:02:48;25.45;;;11.10;;
18520;SDS011;9390;51.244;6.982;2023-02-15T15:05:21;22.48;;;10.30;;
18520;SDS011;9390;51.244;6.982;2023-02-15T15:07:56;23.33;;;10.77;;
18520;SDS011;9390;51.244;6.982;2023-02-15T15:10:38;23.88;;;10.32;;
18520;SDS011;9390;51.244;6.982;2023-02-15T15:19:04;26.90;;;11.50;;
18520;SDS011;9390;51.244;6.982;2023-02-15T15:21:52;22.58;;;10.48;;
18520;SDS011;9390;51.244;6.982;2023-02-15T15:27:42;21.45;;;10.38;;
18520;SDS011;9390;51.244;6.982;2023-02-15T15:36:39;39.53;;;14.25;;
18520;SDS011;9390;51.244;6.982;2023-02-15T15:39:37;44.58;;;15.45;;
18520;SDS011;9390;51.244;6.982;2023-02-15T15:42:22;37.65;;;14.18;;
18520;SDS011;9390;51.244;6.982;2023-02-15T15:48:28;23.65;;;10.88;;
18520;SDS011;9390;51.244;6.982;2023-02-15T15:51:04;24.17;;;10.30;;
18520;SDS011;9390;51.244;6.982;2023-02-15T15:53:40;25.67;;;11.73;;
18520;SDS011;9390;51.244;6.982;2023-02-15T15:56:13;27.10;;;11.40;;
18520;SDS011;9390;51.244;6.982;2023-02-15T15:58:48;25.98;;;11.30;;
18520;SDS011;9390;51.244;6.982;2023-02-15T16:01:26;26.25;;;11.27;;
18520;SDS011;9390;51.244;6.982;2023-02-15T16:03:59;21.60;;;10.40;;
18520;SDS011;9390;51.244;6.982;2023-02-15T16:06:32;24.45;;;11.45;;
18520;SDS011;9390;51.244;6.982;2023-02-15T16:09:14;25.70;;;11.57;;
18520;SDS011;9390;51.244;6.982;2023-02-15T16:11:50;23.55;;;11.50;;
18520;SDS011;9390;51.244;6.982;2023-02-15T16:14:25;25.52;;;11.15;;
18520;SDS011;9390;51.244;6.982;2023-02-15T16:16:58;25.73;;;11.93;;
18520;SDS011;9390;51.244;6.982;2023-02-15T16:19:32;26.38;;;11.75;;